Time;durP1;ratioP1;P1;durP2;ratioP2;P2;SDS_P1;SDS_P2;PMS_P1;PMS_P2;Temp;Humidity;BMP_temperature;BMP_pressure;BME280_temperature;BME280_humidity;BME280_pressure;Samples;Min_cycle;Max_cycle;Signal;HPM_P1;HPM_P2
2022/12/28 00:01:23;;;;;;;18.27;8.63;;;;;;;;;;4905538;29;20072;-66
2022/12/28 00:03:49;;;;;;;18.65;10.23;;;;;;;;;;4901278;29;20035;-66
2022/12/28 00:06:16;;;;;;;16.30;8.48;;;;;;;;;;4905426;29;20035;-66
2022/12/28 00:08:43;;;;;;;22.08;8.30;;;;;;;;;;4899452;29;20099;-66
2022/12/28 00:11:13;;;;;;;16.30;9.00;;;;;;;;;;4908209;29;20031;-66
2022/12/28 00:13:39;;;;;;;16.27;9.57;;;;;;;;;;4902210;29;20446;-66
2022/12/28 00:16:09;;;;;;;19.48;10.02;;;;;;;;;;4902129;29;20275;-66
2022/12/28 00:18:36;;;;;;;21.60;11.07;;;;;;;;;;4904204;29;20155;-66
2022/12/28 00:21:03;;;;;;;20.55;12.63;;;;;;;;;;4903136;29;21118;-65
2022/12/28 00:23:30;;;;;;;22.08;12.20;;;;;;;;;;4907406;29;20427;-66
2022/12/28 00:25:56;;;;;;;21.88;12.07;;;;;;;;;;4903865;28;20459;-66
2022/12/28 00:28:22;;;;;;;21.15;10.43;;;;;;;;;;4907786;29;20039;-66
2022/12/28 00:30:48;;;;;;;17.65;8.85;;;;;;;;;;4906619;29;20050;-65
2022/12/28 00:33:15;;;;;;;15.57;8.43;;;;;;;;;;4908018;29;20106;-66
2022/12/28 00:35:41;;;;;;;18.30;7.60;;;;;;;;;;4907720;29;20577;-66
2022/12/28 00:38:07;;;;;;;;;;;;;;;;;;4905687;29;20269;-66
2022/12/28 00:40:33;;;;;;;14.27;6.70;;;;;;;;;;4906782;29;19919;-66
2022/12/28 00:42:59;;;;;;;15.65;6.88;;;;;;;;;;4904321;29;20090;-66
2022/12/28 00:45:25;;;;;;;13.98;6.07;;;;;;;;;;4907120;29;20356;-66
2022/12/28 00:47:52;;;;;;;15.65;7.20;;;;;;;;;;4904331;29;20106;-66
2022/12/28 00:50:18;;;;;;;14.35;6.68;;;;;;;;;;4906553;29;20047;-66
2022/12/28 00:52:44;;;;;;;14.38;6.90;;;;;;;;;;4915669;28;20038;-66
2022/12/28 00:55:10;;;;;;;18.02;8.13;;;;;;;;;;4907022;29;20035;-66
2022/12/28 00:57:39;;;;;;;15.07;7.80;;;;;;;;;;4921653;28;20043;-66
2022/12/28 01:00:06;;;;;;;15.57;7.63;;;;;;;;;;4917215;28;20764;-66
2022/12/28 01:02:32;;;;;;;;;;;;;;;;;;4910289;29;20032;-66
2022/12/28 01:04:58;;;;;;;16.23;7.85;;;;;;;;;;4915988;28;19915;-66
2022/12/28 01:07:24;;;;;;;16.38;6.70;;;;;;;;;;4905818;29;20644;-66
2022/12/28 01:09:50;;;;;;;15.30;6.80;;;;;;;;;;4916859;28;20142;-66
2022/12/28 01:12:16;;;;;;;15.23;6.57;;;;;;;;;;4907405;29;20546;-66
2022/12/28 01:14:42;;;;;;;14.00;5.47;;;;;;;;;;4901267;28;20040;-66
2022/12/28 01:17:09;;;;;;;12.82;5.43;;;;;;;;;;4907476;29;20367;-66
2022/12/28 01:19:35;;;;;;;12.32;5.28;;;;;;;;;;4906084;29;20210;-68
2022/12/28 01:22:01;;;;;;;12.43;5.07;;;;;;;;;;4902892;29;20551;-66
2022/12/28 01:24:27;;;;;;;12.90;4.72;;;;;;;;;;4907272;29;20070;-66
2022/12/28 01:26:53;;;;;;;12.63;4.13;;;;;;;;;;4905015;29;20107;-66
2022/12/28 01:29:20;;;;;;;12.38;3.92;;;;;;;;;;4905627;29;20103;-66
2022/12/28 01:31:46;;;;;;;12.30;3.97;;;;;;;;;;4917860;28;20036;-66
2022/12/28 01:34:12;;;;;;;10.93;4.15;;;;;;;;;;4917918;28;20115;-66
2022/12/28 01:36:38;;;;;;;9.90;3.63;;;;;;;;;;4907388;29;20070;-66
2022/12/28 01:39:05;;;;;;;13.40;4.47;;;;;;;;;;4904169;29;20442;-66
2022/12/28 01:41:32;;;;;;;11.07;3.85;;;;;;;;;;4907187;29;20047;-66
2022/12/28 01:43:58;;;;;;;13.90;4.28;;;;;;;;;;4904379;29;20032;-66
2022/12/28 01:46:26;;;;;;;12.27;4.22;;;;;;;;;;4904278;29;20035;-66
2022/12/28 01:48:58;;;;;;;12.07;4.25;;;;;;;;;;4902957;29;20031;-65
2022/12/28 01:51:25;;;;;;;14.40;4.45;;;;;;;;;;4906174;29;20569;-66
2022/12/28 01:53:53;;;;;;;13.05;4.10;;;;;;;;;;4903524;29;20035;-66
2022/12/28 01:56:20;;;;;;;12.18;4.20;;;;;;;;;;4904339;29;20046;-66
2022/12/28 01:58:47;;;;;;;17.95;6.72;;;;;;;;;;4902995;29;20044;-65
2022/12/28 02:01:13;;;;;;;19.83;9.43;;;;;;;;;;4906354;29;20119;-67
2022/12/28 02:03:39;;;;;;;24.48;13.65;;;;;;;;;;4923424;28;20038;-65
2022/12/28 02:06:07;;;;;;;28.55;17.15;;;;;;;;;;4906103;29;20028;-68
2022/12/28 02:08:42;;;;;;;28.60;17.90;;;;;;;;;;4907284;29;20044;-65
2022/12/28 02:11:11;;;;;;;29.50;14.43;;;;;;;;;;4907249;29;20032;-66
2022/12/28 02:13:38;;;;;;;22.40;12.23;;;;;;;;;;4908773;28;20043;-68
2022/12/28 02:16:04;;;;;;;18.38;10.20;;;;;;;;;;4903528;29;20036;-67
2022/12/28 02:18:31;;;;;;;18.65;8.95;;;;;;;;;;4906209;29;20324;-66
2022/12/28 02:20:57;;;;;;;20.83;9.25;;;;;;;;;;4899557;29;20032;-67
2022/12/28 02:23:36;;;;;;;20.92;10.70;;;;;;;;;;4905808;29;20046;-66
2022/12/28 02:26:05;;;;;;;26.45;12.38;;;;;;;;;;4902618;29;20131;-67
2022/12/28 02:28:50;;;;;;;24.40;11.63;;;;;;;;;;4905733;29;20392;-65
2022/12/28 02:31:28;;;;;;;24.33;12.18;;;;;;;;;;4904396;29;20064;-65
2022/12/28 02:34:14;;;;;;;20.23;8.65;;;;;;;;;;4903264;29;20469;-66
2022/12/28 02:36:50;;;;;;;18.13;8.85;;;;;;;;;;4909916;28;20044;-65
2022/12/28 02:39:23;;;;;;;17.98;8.55;;;;;;;;;;4910245;29;20648;-65
2022/12/28 02:41:50;;;;;;;20.23;9.00;;;;;;;;;;4908057;29;20066;-65
2022/12/28 02:50:05;;;;;;;15.13;7.18;;;;;;;;;;4907088;29;20150;-66
2022/12/28 02:50:05;;;;;;;13.27;5.75;;;;;;;;;;4905446;29;20094;-66
2022/12/28 02:52:35;;;;;;;14.68;5.25;;;;;;;;;;4923654;28;20325;-66
2022/12/28 02:58:10;;;;;;;16.42;4.50;;;;;;;;;;4903818;29;20051;-67
2022/12/28 03:00:52;;;;;;;14.70;4.25;;;;;;;;;;4907889;29;20103;-67
2022/12/28 03:03:27;;;;;;;11.82;3.67;;;;;;;;;;4910076;29;20035;-68
2022/12/28 03:09:00;;;;;;;11.13;3.80;;;;;;;;;;4908637;29;20086;-66
2022/12/28 03:11:38;;;;;;;15.77;4.60;;;;;;;;;;4923178;28;20525;-66
2022/12/28 03:14:10;;;;;;;13.07;4.80;;;;;;;;;;4905947;29;20027;-65
2022/12/28 03:25:41;;;;;;;12.60;5.00;;;;;;;;;;4922445;28;20035;-65
2022/12/28 03:33:17;;;;;;;15.55;6.82;;;;;;;;;;4909058;29;20274;-65
2022/12/28 03:35:43;;;;;;;16.63;6.82;;;;;;;;;;4905272;28;20135;-65
2022/12/28 03:38:12;;;;;;;14.13;6.05;;;;;;;;;;4910172;29;20038;-66
2022/12/28 03:40:38;;;;;;;15.25;6.20;;;;;;;;;;4908485;29;20028;-66
2022/12/28 03:46:03;;;;;;;16.08;5.90;;;;;;;;;;4906429;29;20046;-66
2022/12/28 03:48:29;;;;;;;;;;;;;;;;;;4911363;29;20023;-65
2022/12/28 03:50:55;;;;;;;13.38;5.68;;;;;;;;;;4906806;29;20293;-66
2022/12/28 03:53:26;;;;;;;15.82;6.00;;;;;;;;;;4907533;29;20116;-66
2022/12/28 03:55:52;;;;;;;13.77;5.78;;;;;;;;;;4905637;29;20411;-65
2022/12/28 03:58:20;;;;;;;15.82;5.40;;;;;;;;;;4907527;29;20124;-66
2022/12/28 04:00:46;;;;;;;12.80;5.15;;;;;;;;;;4907852;29;20115;-66
2022/12/28 04:03:12;;;;;;;12.05;4.80;;;;;;;;;;4908489;29;20095;-66
2022/12/28 04:05:38;;;;;;;10.85;4.80;;;;;;;;;;4910154;29;20147;-66
2022/12/28 04:08:04;;;;;;;16.77;4.10;;;;;;;;;;4904027;29;20083;-66
2022/12/28 04:10:30;;;;;;;12.77;4.55;;;;;;;;;;4907500;29;20170;-66
2022/12/28 04:12:57;;;;;;;11.10;4.38;;;;;;;;;;4907554;29;20158;-66
2022/12/28 04:15:23;;;;;;;10.27;3.95;;;;;;;;;;4924307;28;20387;-66
2022/12/28 04:17:49;;;;;;;;;;;;;;;;;;4906911;28;20523;-66
2022/12/28 04:20:15;;;;;;;10.55;4.40;;;;;;;;;;4909144;29;19997;-66
2022/12/28 04:22:42;;;;;;;11.88;4.43;;;;;;;;;;4908124;29;20040;-65
2022/12/28 04:25:08;;;;;;;11.35;3.97;;;;;;;;;;4907000;29;20028;-65
2022/12/28 04:27:34;;;;;;;11.38;3.65;;;;;;;;;;4906119;29;20066;-66
2022/12/28 04:30:00;;;;;;;11.02;4.10;;;;;;;;;;4904472;29;20044;-65
2022/12/28 04:32:27;;;;;;;11.40;3.60;;;;;;;;;;4908167;29;20448;-67
2022/12/28 04:34:53;;;;;;;12.10;3.63;;;;;;;;;;4903443;29;20046;-67
2022/12/28 04:37:19;;;;;;;11.50;3.40;;;;;;;;;;4921204;28;20166;-68
2022/12/28 04:39:45;;;;;;;10.00;3.13;;;;;;;;;;4902998;29;20051;-65
2022/12/28 04:42:11;;;;;;;13.20;3.28;;;;;;;;;;4906143;29;20119;-67
2022/12/28 04:44:37;;;;;;;11.82;3.03;;;;;;;;;;4908548;29;20040;-67
2022/12/28 04:47:03;;;;;;;12.45;3.17;;;;;;;;;;4905400;29;20059;-67
2022/12/28 04:49:30;;;;;;;9.77;3.00;;;;;;;;;;4907860;28;20036;-65
2022/12/28 04:51:56;;;;;;;8.63;2.40;;;;;;;;;;4914829;28;20035;-66
2022/12/28 04:54:22;;;;;;;8.32;2.80;;;;;;;;;;4906224;29;20134;-65
2022/12/28 04:56:48;;;;;;;8.40;2.72;;;;;;;;;;4917226;28;20475;-66
2022/12/28 04:59:14;;;;;;;14.20;5.00;;;;;;;;;;4908412;29;20049;-66
2022/12/28 05:01:41;;;;;;;39.47;25.65;;;;;;;;;;4910575;29;20598;-66
2022/12/28 05:04:07;;;;;;;;;;;;;;;;;;4923433;28;20506;-65
2022/12/28 05:06:33;;;;;;;36.80;24.27;;;;;;;;;;4905902;29;19915;-66
2022/12/28 05:08:59;;;;;;;27.05;16.02;;;;;;;;;;4905254;29;20502;-65
2022/12/28 05:11:26;;;;;;;19.88;10.57;;;;;;;;;;4908197;29;20520;-66
2022/12/28 05:13:53;;;;;;;14.88;7.45;;;;;;;;;;4904593;29;20376;-65
2022/12/28 05:16:20;;;;;;;14.43;5.47;;;;;;;;;;4907048;29;20042;-66
2022/12/28 05:18:47;;;;;;;10.45;3.80;;;;;;;;;;4918715;28;20382;-66
2022/12/28 05:21:14;;;;;;;10.95;3.85;;;;;;;;;;4906624;29;20087;-66
2022/12/28 05:23:41;;;;;;;13.05;4.18;;;;;;;;;;4903291;29;20031;-66
2022/12/28 05:26:09;;;;;;;11.00;3.80;;;;;;;;;;4906765;28;20019;-66
2022/12/28 05:28:35;;;;;;;13.07;4.72;;;;;;;;;;4921434;28;20059;-66
2022/12/28 05:31:02;;;;;;;12.45;4.22;;;;;;;;;;4904755;29;20035;-66
2022/12/28 05:33:29;;;;;;;12.48;4.28;;;;;;;;;;4904623;29;20595;-66
2022/12/28 05:35:55;;;;;;;9.88;4.07;;;;;;;;;;4901373;29;20490;-66
2022/12/28 05:38:21;;;;;;;11.77;4.07;;;;;;;;;;4905763;29;20042;-66
2022/12/28 05:40:48;;;;;;;9.57;3.67;;;;;;;;;;4901131;29;20468;-66
2022/12/28 05:43:14;;;;;;;9.43;3.80;;;;;;;;;;4905518;29;20035;-65
2022/12/28 05:45:40;;;;;;;10.65;3.30;;;;;;;;;;4905725;29;20042;-65
2022/12/28 05:48:06;;;;;;;13.77;4.47;;;;;;;;;;4916761;28;20042;-65
2022/12/28 05:50:33;;;;;;;13.07;4.45;;;;;;;;;;4921059;28;20803;-65
2022/12/28 05:52:59;;;;;;;;;;;;;;;;;;4918080;28;20043;-66
2022/12/28 05:55:25;;;;;;;13.50;4.57;;;;;;;;;;4906605;29;20188;-65
2022/12/28 05:57:53;;;;;;;10.80;4.00;;;;;;;;;;4918993;28;20481;-65
2022/12/28 06:00:19;;;;;;;8.55;3.28;;;;;;;;;;4924535;28;20119;-65
2022/12/28 06:02:45;;;;;;;12.80;4.05;;;;;;;;;;4905014;28;20339;-65
2022/12/28 06:05:13;;;;;;;10.48;3.88;;;;;;;;;;4910324;29;20549;-65
2022/12/28 06:07:39;;;;;;;11.32;3.50;;;;;;;;;;4924480;28;20111;-65
2022/12/28 06:10:05;;;;;;;14.65;5.28;;;;;;;;;;4919467;28;20504;-65
2022/12/28 06:12:31;;;;;;;14.30;4.28;;;;;;;;;;4912031;29;20095;-65
2022/12/28 06:14:57;;;;;;;10.18;3.47;;;;;;;;;;4908110;29;20345;-65
2022/12/28 06:17:23;;;;;;;15.00;3.85;;;;;;;;;;4909130;29;20152;-66
2022/12/28 06:19:50;;;;;;;10.25;3.40;;;;;;;;;;4907590;29;20170;-65
2022/12/28 06:22:16;;;;;;;10.05;3.67;;;;;;;;;;4909698;29;20031;-65
2022/12/28 06:24:42;;;;;;;11.88;4.47;;;;;;;;;;4924493;28;20028;-65
2022/12/28 06:27:08;;;;;;;10.82;4.13;;;;;;;;;;4910594;29;20035;-65
2022/12/28 06:29:34;;;;;;;12.32;4.57;;;;;;;;;;4910199;29;20074;-65
2022/12/28 06:32:00;;;;;;;13.05;4.22;;;;;;;;;;4906804;29;20276;-65
2022/12/28 06:34:27;;;;;;;13.38;3.90;;;;;;;;;;4910796;29;20036;-65
2022/12/28 06:36:55;;;;;;;;;;;;;;;;;;4906032;29;20517;-65
2022/12/28 06:39:21;;;;;;;15.63;6.25;;;;;;;;;;4911310;29;19933;-66
2022/12/28 06:41:47;;;;;;;19.52;7.40;;;;;;;;;;4903702;29;20036;-65
2022/12/28 06:44:14;;;;;;;19.38;5.88;;;;;;;;;;4910005;29;20082;-66
2022/12/28 06:46:40;;;;;;;19.50;7.55;;;;;;;;;;4910926;29;20028;-65
2022/12/28 06:49:06;;;;;;;;;;;;;;;;;;4906491;28;20032;-65
2022/12/28 06:51:39;;;;;;;16.42;6.18;;;;;;;;;;4909564;29;20090;-65
2022/12/28 06:54:06;;;;;;;16.77;7.07;;;;;;;;;;4919151;28;20398;-65
2022/12/28 06:56:33;;;;;;;18.38;6.22;;;;;;;;;;4909267;29;20027;-64
2022/12/28 06:58:59;;;;;;;15.85;7.50;;;;;;;;;;4908617;29;20406;-65
2022/12/28 07:01:25;;;;;;;;;;;;;;;;;;4920303;28;20028;-65
2022/12/28 07:03:52;;;;;;;12.85;5.20;;;;;;;;;;4905889;29;20286;-65
2022/12/28 07:06:20;;;;;;;12.88;5.32;;;;;;;;;;4909616;29;20134;-65
2022/12/28 07:08:47;;;;;;;15.68;5.03;;;;;;;;;;4906249;29;20183;-65
2022/12/28 07:11:20;;;;;;;13.00;4.40;;;;;;;;;;4907490;28;20171;-65
2022/12/28 07:13:47;;;;;;;14.57;4.75;;;;;;;;;;4904447;28;20099;-65
2022/12/28 07:16:15;;;;;;;15.82;5.03;;;;;;;;;;4906734;29;20104;-65
2022/12/28 07:18:41;;;;;;;17.13;5.05;;;;;;;;;;4906551;29;20028;-65
2022/12/28 07:21:07;;;;;;;;;;;;;;;;;;4908876;29;20103;-66
2022/12/28 07:23:34;;;;;;;11.68;4.85;;;;;;;;;;4910499;29;19921;-65
2022/12/28 07:26:08;;;;;;;12.75;5.00;;;;;;;;;;4900391;29;20034;-65
2022/12/28 07:28:37;;;;;;;16.17;4.97;;;;;;;;;;4905389;29;20035;-67
2022/12/28 07:31:07;;;;;;;13.57;4.88;;;;;;;;;;4906141;29;20055;-66
2022/12/28 07:33:34;;;;;;;13.88;5.22;;;;;;;;;;4924016;28;20439;-66
2022/12/28 07:36:00;;;;;;;16.92;6.47;;;;;;;;;;4915108;28;20024;-65
2022/12/28 07:38:27;;;;;;;19.88;5.93;;;;;;;;;;4907750;29;20055;-66
2022/12/28 07:40:53;;;;;;;;;;;;;;;;;;4897179;28;20032;-66
2022/12/28 07:43:19;;;;;;;16.48;5.35;;;;;;;;;;4900240;29;19923;-66
2022/12/28 07:45:45;;;;;;;14.27;5.00;;;;;;;;;;4903122;29;20044;-66
2022/12/28 07:48:11;;;;;;;16.85;5.10;;;;;;;;;;4904956;29;20039;-66
2022/12/28 07:50:37;;;;;;;11.95;3.97;;;;;;;;;;4905966;29;20046;-66
2022/12/28 07:53:03;;;;;;;14.05;4.78;;;;;;;;;;4899095;29;20208;-66
2022/12/28 07:55:30;;;;;;;12.35;4.47;;;;;;;;;;4901242;29;20202;-66
2022/12/28 07:57:57;;;;;;;13.85;5.15;;;;;;;;;;4899613;29;20086;-65
2022/12/28 08:00:23;;;;;;;13.02;4.95;;;;;;;;;;4908605;29;20662;-65
2022/12/28 08:02:49;;;;;;;13.10;5.35;;;;;;;;;;4906039;29;20091;-65
2022/12/28 08:05:15;;;;;;;12.45;4.20;;;;;;;;;;4908999;29;20035;-66
2022/12/28 08:07:41;;;;;;;11.50;4.47;;;;;;;;;;4907043;29;20043;-66
2022/12/28 08:10:07;;;;;;;14.88;5.35;;;;;;;;;;4918121;28;20046;-66
2022/12/28 08:12:33;;;;;;;;;;;;;;;;;;4921990;28;20756;-66
2022/12/28 08:15:00;;;;;;;25.67;7.25;;;;;;;;;;4902995;29;19915;-66
2022/12/28 08:17:26;;;;;;;18.13;8.05;;;;;;;;;;4907172;29;20095;-64
2022/12/28 08:19:54;;;;;;;22.52;5.72;;;;;;;;;;4904663;29;20062;-64
2022/12/28 08:22:20;;;;;;;21.48;6.10;;;;;;;;;;4907054;29;20027;-64
2022/12/28 08:24:46;;;;;;;25.10;5.82;;;;;;;;;;4915107;28;20469;-64
2022/12/28 08:27:12;;;;;;;16.80;6.30;;;;;;;;;;4905724;29;20126;-64
2022/12/28 08:29:39;;;;;;;19.40;7.03;;;;;;;;;;4907058;28;20816;-64
2022/12/28 08:32:05;;;;;;;17.65;6.28;;;;;;;;;;4905676;29;20863;-64
2022/12/28 08:34:31;;;;;;;16.58;6.75;;;;;;;;;;4906763;29;20111;-63
2022/12/28 08:36:57;;;;;;;18.45;6.47;;;;;;;;;;4903370;29;20170;-63
2022/12/28 08:39:23;;;;;;;15.25;5.78;;;;;;;;;;4904218;29;20028;-63
2022/12/28 08:41:49;;;;;;;15.77;5.22;;;;;;;;;;4904814;29;20024;-63
2022/12/28 08:44:15;;;;;;;15.07;4.75;;;;;;;;;;4905581;29;20065;-63
2022/12/28 08:46:42;;;;;;;12.45;5.22;;;;;;;;;;4904916;29;20568;-63
2022/12/28 08:49:08;;;;;;;;;;;;;;;;;;4906402;29;20102;-64
2022/12/28 08:51:40;;;;;;;11.93;4.90;;;;;;;;;;4906364;29;19936;-64
2022/12/28 08:54:06;;;;;;;14.60;5.30;;;;;;;;;;4901870;29;20027;-64
2022/12/28 08:56:34;;;;;;;16.27;6.07;;;;;;;;;;4906446;29;20055;-64
2022/12/28 08:59:01;;;;;;;12.00;5.95;;;;;;;;;;4917010;28;20048;-64
2022/12/28 09:01:31;;;;;;;12.38;5.65;;;;;;;;;;4903880;29;20035;-64
2022/12/28 09:03:59;;;;;;;13.70;5.97;;;;;;;;;;4907365;29;20522;-64
2022/12/28 09:06:36;;;;;;;13.25;5.28;;;;;;;;;;4904956;29;20128;-64
2022/12/28 09:09:02;;;;;;;;;;;;;;;;;;4905179;29;22415;-64
2022/12/28 09:11:28;;;;;;;14.00;5.63;;;;;;;;;;4905214;29;20013;-64
2022/12/28 09:13:54;;;;;;;;;;;;;;;;;;4904623;29;20063;-64
2022/12/28 09:16:24;;;;;;;12.93;5.25;;;;;;;;;;4919283;28;20117;-64
2022/12/28 09:18:58;;;;;;;12.65;5.43;;;;;;;;;;4903550;29;20039;-64
2022/12/28 09:21:25;;;;;;;14.05;6.90;;;;;;;;;;4906993;29;20031;-64
2022/12/28 09:23:51;;;;;;;21.38;8.07;;;;;;;;;;4899112;29;20039;-65
2022/12/28 09:26:17;;;;;;;;;;;;;;;;;;4917132;28;20554;-64
2022/12/28 09:28:44;;;;;;;20.15;5.93;;;;;;;;;;4919132;28;20454;-64
2022/12/28 09:31:10;;;;;;;13.10;5.55;;;;;;;;;;4907107;29;20034;-64
2022/12/28 09:36:21;;;;;;;21.08;8.18;;;;;;;;;;4906570;29;20082;-64
2022/12/28 09:38:48;;;;;;;20.98;8.05;;;;;;;;;;4902663;29;20275;-64
2022/12/28 09:41:25;;;;;;;15.85;7.20;;;;;;;;;;4908314;29;20688;-64
2022/12/28 09:43:53;;;;;;;17.55;7.28;;;;;;;;;;4901580;29;20370;-64
2022/12/28 09:46:21;;;;;;;16.05;7.80;;;;;;;;;;4905665;29;20616;-64
2022/12/28 09:48:50;;;;;;;20.30;10.50;;;;;;;;;;4915069;28;20032;-64
2022/12/28 09:51:19;;;;;;;20.48;10.27;;;;;;;;;;4902371;29;20095;-64
2022/12/28 09:53:48;;;;;;;20.63;10.25;;;;;;;;;;4919918;28;20040;-64
2022/12/28 09:56:20;;;;;;;20.60;9.35;;;;;;;;;;4903886;29;20581;-64
2022/12/28 09:58:48;;;;;;;20.17;8.90;;;;;;;;;;4905307;29;20040;-65
2022/12/28 10:01:15;;;;;;;15.40;8.45;;;;;;;;;;4920543;28;20027;-64
2022/12/28 10:03:43;;;;;;;17.73;9.43;;;;;;;;;;4906999;29;20039;-64
2022/12/28 10:06:13;;;;;;;23.15;10.40;;;;;;;;;;4905731;29;20047;-65
2022/12/28 10:08:50;;;;;;;18.88;10.07;;;;;;;;;;4908937;29;20424;-64
2022/12/28 10:11:19;;;;;;;14.68;7.03;;;;;;;;;;4908468;29;20835;-64
2022/12/28 10:13:45;;;;;;;12.18;6.50;;;;;;;;;;4905041;29;20601;-64
2022/12/28 10:16:18;;;;;;;10.38;5.78;;;;;;;;;;4907223;29;20040;-64
2022/12/28 10:18:45;;;;;;;11.35;5.20;;;;;;;;;;4905191;29;20394;-64
2022/12/28 10:21:11;;;;;;;10.45;4.80;;;;;;;;;;4907898;29;20032;-64
2022/12/28 10:23:38;;;;;;;10.18;4.57;;;;;;;;;;4905342;29;20255;-64
2022/12/28 10:26:05;;;;;;;10.63;4.85;;;;;;;;;;4902720;29;20546;-64
2022/12/28 10:28:41;;;;;;;15.65;5.60;;;;;;;;;;4921899;28;20387;-64
2022/12/28 10:31:11;;;;;;;11.32;5.40;;;;;;;;;;4903882;28;20066;-65
2022/12/28 10:33:42;;;;;;;14.48;6.63;;;;;;;;;;4921093;28;20549;-64
2022/12/28 10:36:17;;;;;;;12.38;6.72;;;;;;;;;;4920286;28;20079;-66
2022/12/28 10:38:48;;;;;;;15.57;7.10;;;;;;;;;;4919615;28;20134;-65
2022/12/28 10:41:15;;;;;;;13.18;7.32;;;;;;;;;;4909856;29;20050;-66
2022/12/28 10:43:44;;;;;;;14.52;7.20;;;;;;;;;;4909671;29;20031;-63
2022/12/28 10:46:21;;;;;;;13.90;7.57;;;;;;;;;;4930581;28;20039;-66
2022/12/28 10:48:50;;;;;;;13.50;6.90;;;;;;;;;;4921166;28;20200;-64
2022/12/28 10:51:18;;;;;;;13.70;7.25;;;;;;;;;;4916433;29;20038;-65
2022/12/28 10:53:46;;;;;;;13.85;7.30;;;;;;;;;;4909652;29;20313;-65
2022/12/28 10:56:12;;;;;;;13.40;7.35;;;;;;;;;;4912815;29;20094;-64
2022/12/28 10:58:39;;;;;;;13.02;6.80;;;;;;;;;;4911842;29;20063;-64
2022/12/28 11:01:07;;;;;;;12.43;6.55;;;;;;;;;;4906858;29;20028;-65
2022/12/28 11:03:35;;;;;;;11.32;6.43;;;;;;;;;;4912067;29;20046;-63
2022/12/28 11:06:08;;;;;;;11.82;6.80;;;;;;;;;;4909575;28;20122;-66
2022/12/28 11:08:35;;;;;;;15.10;8.57;;;;;;;;;;4927295;28;20477;-65
2022/12/28 11:11:01;;;;;;;14.40;9.18;;;;;;;;;;4921397;28;20055;-65
2022/12/28 11:13:27;;;;;;;15.75;9.82;;;;;;;;;;4912552;29;20281;-65
2022/12/28 11:15:54;;;;;;;16.50;10.70;;;;;;;;;;4908774;29;20212;-65
2022/12/28 11:18:20;;;;;;;15.20;9.75;;;;;;;;;;4924405;28;20528;-66
2022/12/28 11:20:48;;;;;;;16.13;9.48;;;;;;;;;;4908299;29;20107;-65
2022/12/28 11:23:17;;;;;;;17.83;9.23;;;;;;;;;;4910084;29;20462;-65
2022/12/28 11:25:44;;;;;;;12.50;6.32;;;;;;;;;;4906902;29;20697;-66
2022/12/28 11:28:15;;;;;;;12.18;6.55;;;;;;;;;;4913213;29;20063;-65
2022/12/28 11:30:42;;;;;;;11.35;5.50;;;;;;;;;;4921272;28;20496;-66
2022/12/28 11:33:21;;;;;;;14.32;6.07;;;;;;;;;;4909520;29;20035;-66
2022/12/28 11:35:48;;;;;;;17.48;7.10;;;;;;;;;;4905470;29;20034;-66
2022/12/28 11:38:34;;;;;;;14.63;6.22;;;;;;;;;;4906574;29;20040;-66
2022/12/28 11:41:01;;;;;;;11.63;5.13;;;;;;;;;;4910610;28;20040;-66
2022/12/28 11:43:30;;;;;;;12.60;5.22;;;;;;;;;;4910060;28;20244;-66
2022/12/28 11:45:58;;;;;;;12.20;5.20;;;;;;;;;;4905868;29;20113;-66
2022/12/28 11:48:47;;;;;;;9.98;3.95;;;;;;;;;;4909935;29;20028;-66
2022/12/28 11:51:20;;;;;;;12.35;4.60;;;;;;;;;;4908728;28;20081;-65
2022/12/28 11:53:47;;;;;;;11.52;4.30;;;;;;;;;;4915963;28;20047;-65
2022/12/28 11:56:17;;;;;;;11.68;4.45;;;;;;;;;;4918216;28;20051;-65
2022/12/28 11:59:00;;;;;;;9.48;4.15;;;;;;;;;;4918732;28;20027;-65
2022/12/28 12:01:29;;;;;;;11.90;6.50;;;;;;;;;;4923630;28;20307;-65
2022/12/28 12:03:58;;;;;;;14.57;7.47;;;;;;;;;;4922789;28;20034;-65
2022/12/28 12:06:42;;;;;;;12.40;6.00;;;;;;;;;;4923236;28;20046;-65
2022/12/28 12:09:20;;;;;;;16.67;4.80;;;;;;;;;;4921159;28;20475;-65
2022/12/28 12:11:47;;;;;;;12.85;5.43;;;;;;;;;;4918575;28;20261;-67
2022/12/28 12:14:15;;;;;;;15.20;7.13;;;;;;;;;;4909931;29;20035;-64
2022/12/28 12:16:50;;;;;;;16.20;6.50;;;;;;;;;;4922133;28;20268;-65
2022/12/28 12:19:22;;;;;;;11.75;4.50;;;;;;;;;;4913603;28;20538;-65
2022/12/28 12:21:54;;;;;;;14.10;5.28;;;;;;;;;;4911224;28;20039;-65
2022/12/28 12:24:25;;;;;;;11.80;4.35;;;;;;;;;;4912421;28;20478;-66
2022/12/28 12:26:57;;;;;;;9.70;4.00;;;;;;;;;;4910529;28;20557;-66
2022/12/28 12:29:39;;;;;;;15.43;4.15;;;;;;;;;;4898489;29;20044;-66
2022/12/28 12:32:07;;;;;;;10.18;4.35;;;;;;;;;;4895470;29;20090;-64
2022/12/28 12:34:54;;;;;;;10.43;3.50;;;;;;;;;;4899737;29;20040;-64
2022/12/28 12:37:20;;;;;;;10.50;4.18;;;;;;;;;;4904139;29;20413;-64
2022/12/28 12:39:49;;;;;;;15.35;4.57;;;;;;;;;;4897825;29;20593;-64
2022/12/28 12:42:18;;;;;;;14.57;4.50;;;;;;;;;;4903641;29;20067;-64
2022/12/28 12:44:51;;;;;;;25.63;16.70;;;;;;;;;;4902121;29;20394;-65
2022/12/28 12:47:27;;;;;;;29.27;22.10;;;;;;;;;;4906463;29;20490;-64
2022/12/28 12:50:12;;;;;;;19.73;13.48;;;;;;;;;;4900979;29;20170;-66
2022/12/28 12:52:55;;;;;;;18.55;9.27;;;;;;;;;;4901054;29;20027;-65
2022/12/28 12:55:27;;;;;;;23.95;10.95;;;;;;;;;;4902406;29;20036;-65
2022/12/28 12:58:02;;;;;;;14.65;6.03;;;;;;;;;;4896959;29;20447;-66
2022/12/28 13:00:33;;;;;;;18.30;5.80;;;;;;;;;;4914902;28;20036;-65
2022/12/28 13:03:08;;;;;;;18.92;4.18;;;;;;;;;;4899748;29;20032;-66
2022/12/28 13:05:36;;;;;;;10.52;2.60;;;;;;;;;;4914970;28;20040;-65
2022/12/28 13:08:03;;;;;;;10.43;2.75;;;;;;;;;;4896447;29;20024;-66
2022/12/28 13:10:32;;;;;;;9.88;2.85;;;;;;;;;;4901144;29;20035;-65
2022/12/28 13:12:59;;;;;;;10.18;3.20;;;;;;;;;;4900467;29;20040;-65
2022/12/28 13:15:26;;;;;;;11.65;4.03;;;;;;;;;;4903222;29;20497;-65
2022/12/28 13:18:06;;;;;;;13.48;4.45;;;;;;;;;;4901381;29;20036;-65
2022/12/28 13:20:32;;;;;;;21.35;11.10;;;;;;;;;;4919669;28;20813;-66
2022/12/28 13:22:59;;;;;;;17.35;6.22;;;;;;;;;;4903203;29;20504;-66
2022/12/28 13:25:26;;;;;;;12.65;3.47;;;;;;;;;;4907257;29;20036;-66
2022/12/28 13:27:53;;;;;;;11.65;4.00;;;;;;;;;;4900779;29;20043;-66
2022/12/28 13:30:21;;;;;;;14.23;5.22;;;;;;;;;;4911445;29;20044;-66
2022/12/28 13:32:51;;;;;;;12.30;3.30;;;;;;;;;;4898409;29;20042;-66
2022/12/28 13:35:18;;;;;;;14.07;3.55;;;;;;;;;;4900535;28;20483;-65
2022/12/28 13:37:58;;;;;;;10.65;3.17;;;;;;;;;;4897393;28;20394;-65
2022/12/28 13:40:24;;;;;;;12.93;3.28;;;;;;;;;;4899843;29;20325;-65
2022/12/28 13:43:10;;;;;;;13.00;3.97;;;;;;;;;;4899055;29;20023;-66
2022/12/28 13:45:37;;;;;;;12.32;4.80;;;;;;;;;;4899022;29;20447;-63
2022/12/28 13:48:04;;;;;;;13.98;4.30;;;;;;;;;;4895104;29;20114;-64
2022/12/28 13:50:32;;;;;;;21.65;11.35;;;;;;;;;;4902427;29;20525;-64
2022/12/28 13:53:02;;;;;;;16.58;6.63;;;;;;;;;;4896863;29;20444;-64
2022/12/28 13:55:42;;;;;;;13.55;5.20;;;;;;;;;;4899443;29;20702;-64
2022/12/28 13:58:11;;;;;;;10.48;2.63;;;;;;;;;;4914959;28;20034;-64
2022/12/28 14:00:38;;;;;;;10.82;2.25;;;;;;;;;;4898612;29;20044;-64
2022/12/28 14:03:07;;;;;;;8.85;1.83;;;;;;;;;;4907151;28;20031;-65
2022/12/28 14:05:33;;;;;;;5.50;1.58;;;;;;;;;;4899765;29;20383;-66
2022/12/28 14:08:01;;;;;;;12.65;1.73;;;;;;;;;;4898479;29;20371;-64
2022/12/28 14:10:28;;;;;;;9.20;1.77;;;;;;;;;;4902649;29;20116;-65
2022/12/28 14:12:55;;;;;;;9.13;1.70;;;;;;;;;;4897619;29;20095;-65
2022/12/28 14:15:21;;;;;;;10.07;1.88;;;;;;;;;;4903638;29;20466;-65
2022/12/28 14:17:49;;;;;;;9.32;2.00;;;;;;;;;;4897774;29;20036;-65
2022/12/28 14:20:15;;;;;;;8.73;2.28;;;;;;;;;;4904056;29;20032;-65
2022/12/28 14:22:44;;;;;;;10.30;2.92;;;;;;;;;;4907219;29;20039;-66
2022/12/28 14:25:12;;;;;;;12.75;3.10;;;;;;;;;;4906017;29;20130;-65
2022/12/28 14:27:42;;;;;;;8.18;2.20;;;;;;;;;;4904026;29;20086;-65
2022/12/28 14:30:20;;;;;;;9.85;2.10;;;;;;;;;;4905779;29;20032;-65
2022/12/28 14:32:46;;;;;;;12.57;2.30;;;;;;;;;;4916477;28;22028;-65
2022/12/28 14:35:23;;;;;;;8.07;2.10;;;;;;;;;;4919963;28;20034;-66
2022/12/28 14:37:52;;;;;;;10.13;2.05;;;;;;;;;;4903546;29;20680;-64
2022/12/28 14:40:38;;;;;;;10.30;1.90;;;;;;;;;;4906290;29;20050;-66
2022/12/28 14:43:14;;;;;;;9.80;2.00;;;;;;;;;;4903771;29;20127;-66
2022/12/28 14:45:40;;;;;;;;;;;;;;;;;;4906186;29;20024;-64
2022/12/28 14:48:22;;;;;;;10.27;1.98;;;;;;;;;;4904064;29;20360;-65
2022/12/28 14:50:56;;;;;;;10.20;1.80;;;;;;;;;;4916587;28;20505;-65
2022/12/28 14:53:23;;;;;;;9.20;2.10;;;;;;;;;;4907241;29;20040;-65
2022/12/28 14:55:55;;;;;;;13.00;2.25;;;;;;;;;;4901747;29;20055;-65
2022/12/28 14:58:29;;;;;;;10.73;3.80;;;;;;;;;;4907087;29;20039;-65
2022/12/28 15:00:57;;;;;;;12.70;5.20;;;;;;;;;;4902557;29;20039;-65
2022/12/28 15:03:27;;;;;;;13.00;4.05;;;;;;;;;;4920010;28;20039;-64
2022/12/28 15:05:54;;;;;;;11.13;2.35;;;;;;;;;;4903753;29;20028;-65
2022/12/28 15:08:24;;;;;;;13.48;3.22;;;;;;;;;;4905601;29;20119;-65
2022/12/28 15:10:51;;;;;;;12.43;3.97;;;;;;;;;;4901092;29;20127;-65
2022/12/28 15:13:18;;;;;;;10.55;3.40;;;;;;;;;;4904546;29;20130;-65